sensor_id;sensor_type;location;lat;lon;timestamp;P1;durP1;ratioP1;P2;durP2;ratioP2
55633;SDS011;41504;53.162;6.788;2023-03-23T00:01:47;16.63;;;11.32;;
55633;SDS011;41504;53.162;6.788;2023-03-23T00:04:17;14.65;;;10.88;;
55633;SDS011;41504;53.162;6.788;2023-03-23T00:06:43;16.77;;;10.55;;
55633;SDS011;41504;53.162;6.788;2023-03-23T00:09:10;14.32;;;10.10;;
55633;SDS011;41504;53.162;6.788;2023-03-23T00:11:37;14.15;;;10.23;;
55633;SDS011;41504;53.162;6.788;2023-03-23T00:14:04;12.35;;;9.13;;
55633;SDS011;41504;53.162;6.788;2023-03-23T00:16:31;14.88;;;10.38;;
55633;SDS011;41504;53.162;6.788;2023-03-23T00:18:59;13.45;;;9.73;;
55633;SDS011;41504;53.162;6.788;2023-03-23T00:21:32;13.90;;;9.80;;
55633;SDS011;41504;53.162;6.788;2023-03-23T00:24:10;13.15;;;9.13;;
55633;SDS011;41504;53.162;6.788;2023-03-23T00:26:55;11.68;;;9.00;;
55633;SDS011;41504;53.162;6.788;2023-03-23T00:29:23;13.65;;;9.02;;
55633;SDS011;41504;53.162;6.788;2023-03-23T00:31:49;14.43;;;9.32;;
55633;SDS011;41504;53.162;6.788;2023-03-23T00:34:19;14.30;;;9.15;;
55633;SDS011;41504;53.162;6.788;2023-03-23T00:36:47;11.90;;;8.80;;
55633;SDS011;41504;53.162;6.788;2023-03-23T00:39:15;12.55;;;8.77;;
55633;SDS011;41504;53.162;6.788;2023-03-23T00:41:42;15.05;;;9.38;;
55633;SDS011;41504;53.162;6.788;2023-03-23T00:44:08;13.20;;;8.75;;
55633;SDS011;41504;53.162;6.788;2023-03-23T00:46:34;13.75;;;8.95;;
55633;SDS011;41504;53.162;6.788;2023-03-23T00:49:10;15.07;;;9.00;;
55633;SDS011;41504;53.162;6.788;2023-03-23T00:51:39;13.82;;;9.10;;
55633;SDS011;41504;53.162;6.788;2023-03-23T00:54:06;11.68;;;8.88;;
55633;SDS011;41504;53.162;6.788;2023-03-23T00:56:33;13.90;;;8.40;;
55633;SDS011;41504;53.162;6.788;2023-03-23T00:58:59;15.73;;;9.27;;
55633;SDS011;41504;53.162;6.788;2023-03-23T01:01:25;13.80;;;9.20;;
55633;SDS011;41504;53.162;6.788;2023-03-23T01:03:51;13.65;;;9.00;;
55633;SDS011;41504;53.162;6.788;2023-03-23T01:06:18;12.63;;;8.23;;
55633;SDS011;41504;53.162;6.788;2023-03-23T01:08:44;13.88;;;7.22;;
55633;SDS011;41504;53.162;6.788;2023-03-23T01:11:14;7.60;;;4.60;;
55633;SDS011;41504;53.162;6.788;2023-03-23T01:13:44;7.57;;;3.30;;
55633;SDS011;41504;53.162;6.788;2023-03-23T01:16:09;6.20;;;2.90;;
55633;SDS011;41504;53.162;6.788;2023-03-23T01:18:36;6.00;;;2.90;;
55633;SDS011;41504;53.162;6.788;2023-03-23T01:21:03;5.93;;;3.10;;
55633;SDS011;41504;53.162;6.788;2023-03-23T01:23:33;6.95;;;3.10;;
55633;SDS011;41504;53.162;6.788;2023-03-23T01:26:03;6.78;;;3.50;;
55633;SDS011;41504;53.162;6.788;2023-03-23T01:28:31;7.32;;;5.30;;
55633;SDS011;41504;53.162;6.788;2023-03-23T01:31:00;11.13;;;5.90;;
55633;SDS011;41504;53.162;6.788;2023-03-23T01:33:30;11.70;;;6.90;;
55633;SDS011;41504;53.162;6.788;2023-03-23T01:35:57;9.27;;;6.07;;
55633;SDS011;41504;53.162;6.788;2023-03-23T01:38:23;10.23;;;6.45;;
55633;SDS011;41504;53.162;6.788;2023-03-23T01:40:49;11.93;;;6.75;;
55633;SDS011;41504;53.162;6.788;2023-03-23T01:43:15;10.45;;;6.10;;
55633;SDS011;41504;53.162;6.788;2023-03-23T01:45:41;11.35;;;6.53;;
55633;SDS011;41504;53.162;6.788;2023-03-23T01:50:34;10.57;;;6.32;;
55633;SDS011;41504;53.162;6.788;2023-03-23T01:53:06;12.82;;;7.30;;
55633;SDS011;41504;53.162;6.788;2023-03-23T01:55:33;14.13;;;6.63;;
55633;SDS011;41504;53.162;6.788;2023-03-23T01:58:02;11.38;;;6.18;;
55633;SDS011;41504;53.162;6.788;2023-03-23T02:00:28;10.90;;;6.38;;
55633;SDS011;41504;53.162;6.788;2023-03-23T02:02:55;9.20;;;5.53;;
55633;SDS011;41504;53.162;6.788;2023-03-23T02:05:26;9.75;;;5.97;;
55633;SDS011;41504;53.162;6.788;2023-03-23T02:07:59;11.18;;;5.72;;
55633;SDS011;41504;53.162;6.788;2023-03-23T02:10:29;10.10;;;5.43;;
55633;SDS011;41504;53.162;6.788;2023-03-23T02:12:56;10.77;;;5.32;;
55633;SDS011;41504;53.162;6.788;2023-03-23T02:15:23;10.07;;;4.72;;
55633;SDS011;41504;53.162;6.788;2023-03-23T02:39:34;8.73;;;4.40;;
55633;SDS011;41504;53.162;6.788;2023-03-23T02:42:09;7.43;;;4.10;;
55633;SDS011;41504;53.162;6.788;2023-03-23T02:44:37;9.05;;;4.85;;
55633;SDS011;41504;53.162;6.788;2023-03-23T02:47:08;8.93;;;4.10;;
55633;SDS011;41504;53.162;6.788;2023-03-23T02:49:38;10.60;;;4.47;;
55633;SDS011;41504;53.162;6.788;2023-03-23T02:52:12;8.32;;;4.22;;
55633;SDS011;41504;53.162;6.788;2023-03-23T02:54:44;7.95;;;4.00;;
55633;SDS011;41504;53.162;6.788;2023-03-23T02:57:12;8.20;;;4.30;;
55633;SDS011;41504;53.162;6.788;2023-03-23T02:59:38;9.38;;;4.40;;
55633;SDS011;41504;53.162;6.788;2023-03-23T03:04:41;9.25;;;4.30;;
55633;SDS011;41504;53.162;6.788;2023-03-23T03:07:17;8.02;;;4.03;;
55633;SDS011;41504;53.162;6.788;2023-03-23T03:10:25;9.43;;;4.15;;
55633;SDS011;41504;53.162;6.788;2023-03-23T03:16:13;8.27;;;3.80;;
55633;SDS011;41504;53.162;6.788;2023-03-23T03:18:48;9.73;;;4.20;;
55633;SDS011;41504;53.162;6.788;2023-03-23T03:21:21;6.85;;;4.10;;
55633;SDS011;41504;53.162;6.788;2023-03-23T03:23:52;9.75;;;4.00;;
55633;SDS011;41504;53.162;6.788;2023-03-23T03:26:24;9.40;;;3.85;;
55633;SDS011;41504;53.162;6.788;2023-03-23T03:28:54;8.98;;;4.00;;
55633;SDS011;41504;53.162;6.788;2023-03-23T03:31:22;9.93;;;4.03;;
55633;SDS011;41504;53.162;6.788;2023-03-23T03:33:52;7.93;;;3.45;;
55633;SDS011;41504;53.162;6.788;2023-03-23T03:36:24;9.95;;;3.92;;
55633;SDS011;41504;53.162;6.788;2023-03-23T03:38:53;6.32;;;3.53;;
55633;SDS011;41504;53.162;6.788;2023-03-23T03:41:22;6.75;;;3.30;;
55633;SDS011;41504;53.162;6.788;2023-03-23T03:43:48;10.15;;;3.72;;
55633;SDS011;41504;53.162;6.788;2023-03-23T03:46:13;7.65;;;3.58;;
55633;SDS011;41504;53.162;6.788;2023-03-23T03:48:39;8.23;;;3.33;;
55633;SDS011;41504;53.162;6.788;2023-03-23T03:51:05;6.93;;;3.47;;
55633;SDS011;41504;53.162;6.788;2023-03-23T03:53:30;7.10;;;3.80;;
55633;SDS011;41504;53.162;6.788;2023-03-23T03:55:56;8.07;;;3.65;;
55633;SDS011;41504;53.162;6.788;2023-03-23T03:58:25;8.63;;;4.32;;
55633;SDS011;41504;53.162;6.788;2023-03-23T04:00:57;8.75;;;3.95;;
55633;SDS011;41504;53.162;6.788;2023-03-23T04:03:24;8.20;;;4.00;;
55633;SDS011;41504;53.162;6.788;2023-03-23T04:05:51;8.27;;;4.15;;
55633;SDS011;41504;53.162;6.788;2023-03-23T04:08:17;7.95;;;3.97;;
55633;SDS011;41504;53.162;6.788;2023-03-23T04:10:44;7.63;;;3.90;;
55633;SDS011;41504;53.162;6.788;2023-03-23T04:13:10;8.43;;;4.20;;
55633;SDS011;41504;53.162;6.788;2023-03-23T04:15:35;9.85;;;4.65;;
55633;SDS011;41504;53.162;6.788;2023-03-23T04:18:01;9.80;;;4.40;;
55633;SDS011;41504;53.162;6.788;2023-03-23T04:20:27;10.20;;;4.90;;
55633;SDS011;41504;53.162;6.788;2023-03-23T04:22:53;9.13;;;4.60;;
55633;SDS011;41504;53.162;6.788;2023-03-23T04:25:20;8.90;;;4.80;;
55633;SDS011;41504;53.162;6.788;2023-03-23T04:27:47;9.02;;;4.38;;
55633;SDS011;41504;53.162;6.788;2023-03-23T04:30:20;11.02;;;4.25;;
55633;SDS011;41504;53.162;6.788;2023-03-23T04:32:48;6.90;;;4.05;;
55633;SDS011;41504;53.162;6.788;2023-03-23T04:35:15;10.05;;;5.00;;
55633;SDS011;41504;53.162;6.788;2023-03-23T04:37:42;10.57;;;4.72;;
55633;SDS011;41504;53.162;6.788;2023-03-23T04:40:09;9.07;;;3.53;;
55633;SDS011;41504;53.162;6.788;2023-03-23T04:42:37;7.40;;;2.80;;
55633;SDS011;41504;53.162;6.788;2023-03-23T04:45:04;5.18;;;1.80;;
55633;SDS011;41504;53.162;6.788;2023-03-23T04:47:33;3.65;;;1.90;;
55633;SDS011;41504;53.162;6.788;2023-03-23T04:50:06;5.68;;;2.40;;
55633;SDS011;41504;53.162;6.788;2023-03-23T04:52:38;7.30;;;3.38;;
55633;SDS011;41504;53.162;6.788;2023-03-23T04:55:05;8.32;;;3.97;;
55633;SDS011;41504;53.162;6.788;2023-03-23T04:57:34;9.05;;;3.92;;
55633;SDS011;41504;53.162;6.788;2023-03-23T05:00:00;7.03;;;3.10;;
55633;SDS011;41504;53.162;6.788;2023-03-23T05:02:30;6.00;;;3.13;;
55633;SDS011;41504;53.162;6.788;2023-03-23T05:04:56;7.28;;;3.58;;
55633;SDS011;41504;53.162;6.788;2023-03-23T05:07:23;7.10;;;3.40;;
55633;SDS011;41504;53.162;6.788;2023-03-23T05:09:49;6.47;;;3.10;;
55633;SDS011;41504;53.162;6.788;2023-03-23T05:12:15;7.22;;;3.10;;
55633;SDS011;41504;53.162;6.788;2023-03-23T05:14:41;8.05;;;3.85;;
55633;SDS011;41504;53.162;6.788;2023-03-23T05:17:07;10.43;;;3.80;;
55633;SDS011;41504;53.162;6.788;2023-03-23T05:19:34;11.25;;;3.83;;
55633;SDS011;41504;53.162;6.788;2023-03-23T05:22:03;7.20;;;3.70;;
55633;SDS011;41504;53.162;6.788;2023-03-23T05:24:29;8.05;;;2.65;;
55633;SDS011;41504;53.162;6.788;2023-03-23T05:27:01;9.07;;;2.72;;
55633;SDS011;41504;53.162;6.788;2023-03-23T05:29:28;8.73;;;2.65;;
55633;SDS011;41504;53.162;6.788;2023-03-23T05:31:56;10.25;;;2.80;;
55633;SDS011;41504;53.162;6.788;2023-03-23T05:34:25;8.63;;;2.65;;
55633;SDS011;41504;53.162;6.788;2023-03-23T05:36:51;9.05;;;2.55;;
55633;SDS011;41504;53.162;6.788;2023-03-23T05:39:18;9.15;;;2.90;;
55633;SDS011;41504;53.162;6.788;2023-03-23T05:41:44;8.88;;;2.88;;
55633;SDS011;41504;53.162;6.788;2023-03-23T05:44:11;9.25;;;2.33;;
55633;SDS011;41504;53.162;6.788;2023-03-23T05:46:38;7.22;;;2.30;;
55633;SDS011;41504;53.162;6.788;2023-03-23T05:49:04;9.93;;;2.47;;
55633;SDS011;41504;53.162;6.788;2023-03-23T05:51:30;10.43;;;2.50;;
55633;SDS011;41504;53.162;6.788;2023-03-23T05:53:56;9.00;;;2.40;;
55633;SDS011;41504;53.162;6.788;2023-03-23T05:56:22;7.95;;;2.28;;
55633;SDS011;41504;53.162;6.788;2023-03-23T05:58:48;10.50;;;3.20;;
55633;SDS011;41504;53.162;6.788;2023-03-23T06:01:14;10.75;;;2.83;;
55633;SDS011;41504;53.162;6.788;2023-03-23T06:03:41;13.68;;;2.70;;
55633;SDS011;41504;53.162;6.788;2023-03-23T06:06:09;12.05;;;2.92;;
55633;SDS011;41504;53.162;6.788;2023-03-23T06:08:36;13.48;;;3.00;;
55633;SDS011;41504;53.162;6.788;2023-03-23T06:11:03;13.07;;;3.28;;
55633;SDS011;41504;53.162;6.788;2023-03-23T06:13:29;11.98;;;3.15;;
55633;SDS011;41504;53.162;6.788;2023-03-23T06:15:56;14.25;;;3.70;;
55633;SDS011;41504;53.162;6.788;2023-03-23T06:18:22;11.80;;;3.03;;
55633;SDS011;41504;53.162;6.788;2023-03-23T06:20:49;13.95;;;3.25;;
55633;SDS011;41504;53.162;6.788;2023-03-23T06:23:16;14.40;;;3.60;;
55633;SDS011;41504;53.162;6.788;2023-03-23T06:25:42;13.98;;;3.50;;
55633;SDS011;41504;53.162;6.788;2023-03-23T06:28:09;14.23;;;3.63;;
55633;SDS011;41504;53.162;6.788;2023-03-23T06:30:36;17.30;;;3.13;;
55633;SDS011;41504;53.162;6.788;2023-03-23T06:33:02;14.75;;;3.45;;
55633;SDS011;41504;53.162;6.788;2023-03-23T06:35:30;16.50;;;3.92;;
55633;SDS011;41504;53.162;6.788;2023-03-23T06:37:57;14.35;;;3.80;;
55633;SDS011;41504;53.162;6.788;2023-03-23T06:40:26;15.73;;;3.53;;
55633;SDS011;41504;53.162;6.788;2023-03-23T06:42:53;12.98;;;3.92;;
55633;SDS011;41504;53.162;6.788;2023-03-23T06:45:21;14.10;;;4.20;;
55633;SDS011;41504;53.162;6.788;2023-03-23T06:47:47;16.73;;;3.60;;
55633;SDS011;41504;53.162;6.788;2023-03-23T06:50:15;15.43;;;3.25;;
55633;SDS011;41504;53.162;6.788;2023-03-23T06:52:48;15.52;;;3.85;;
55633;SDS011;41504;53.162;6.788;2023-03-23T06:55:16;14.68;;;3.60;;
55633;SDS011;41504;53.162;6.788;2023-03-23T06:57:43;16.05;;;3.95;;
55633;SDS011;41504;53.162;6.788;2023-03-23T07:00:10;15.15;;;4.55;;
55633;SDS011;41504;53.162;6.788;2023-03-23T07:02:39;17.10;;;3.92;;
55633;SDS011;41504;53.162;6.788;2023-03-23T07:05:06;16.88;;;3.72;;
55633;SDS011;41504;53.162;6.788;2023-03-23T07:07:34;11.98;;;3.30;;
55633;SDS011;41504;53.162;6.788;2023-03-23T07:10:00;14.15;;;3.53;;
55633;SDS011;41504;53.162;6.788;2023-03-23T07:12:27;14.63;;;3.45;;
55633;SDS011;41504;53.162;6.788;2023-03-23T07:14:53;18.00;;;4.13;;
55633;SDS011;41504;53.162;6.788;2023-03-23T07:17:20;18.48;;;3.45;;
55633;SDS011;41504;53.162;6.788;2023-03-23T07:19:46;17.05;;;3.92;;
55633;SDS011;41504;53.162;6.788;2023-03-23T07:22:12;17.75;;;4.25;;
55633;SDS011;41504;53.162;6.788;2023-03-23T07:24:37;16.77;;;4.10;;
55633;SDS011;41504;53.162;6.788;2023-03-23T07:27:03;22.95;;;4.85;;
55633;SDS011;41504;53.162;6.788;2023-03-23T07:29:29;14.27;;;3.80;;
55633;SDS011;41504;53.162;6.788;2023-03-23T07:31:58;16.70;;;3.92;;
55633;SDS011;41504;53.162;6.788;2023-03-23T07:34:23;17.00;;;4.10;;
55633;SDS011;41504;53.162;6.788;2023-03-23T07:36:49;14.95;;;3.70;;
55633;SDS011;41504;53.162;6.788;2023-03-23T07:39:15;19.25;;;4.47;;
55633;SDS011;41504;53.162;6.788;2023-03-23T07:41:46;15.13;;;3.75;;
55633;SDS011;41504;53.162;6.788;2023-03-23T07:44:12;18.63;;;4.10;;
55633;SDS011;41504;53.162;6.788;2023-03-23T07:46:37;17.48;;;4.10;;
55633;SDS011;41504;53.162;6.788;2023-03-23T07:49:03;18.95;;;4.28;;
55633;SDS011;41504;53.162;6.788;2023-03-23T07:51:30;16.42;;;4.00;;
55633;SDS011;41504;53.162;6.788;2023-03-23T07:53:57;22.17;;;4.20;;
55633;SDS011;41504;53.162;6.788;2023-03-23T07:56:23;20.45;;;4.68;;
55633;SDS011;41504;53.162;6.788;2023-03-23T07:58:50;18.42;;;4.05;;
55633;SDS011;41504;53.162;6.788;2023-03-23T08:01:16;19.20;;;3.90;;
55633;SDS011;41504;53.162;6.788;2023-03-23T08:03:42;22.00;;;4.47;;
55633;SDS011;41504;53.162;6.788;2023-03-23T08:06:08;15.77;;;3.35;;
55633;SDS011;41504;53.162;6.788;2023-03-23T08:08:35;19.65;;;4.07;;
55633;SDS011;41504;53.162;6.788;2023-03-23T08:11:02;17.27;;;4.28;;
55633;SDS011;41504;53.162;6.788;2023-03-23T08:13:28;19.67;;;3.40;;
55633;SDS011;41504;53.162;6.788;2023-03-23T08:15:54;19.92;;;4.85;;
55633;SDS011;41504;53.162;6.788;2023-03-23T08:18:20;20.38;;;4.50;;
55633;SDS011;41504;53.162;6.788;2023-03-23T08:20:45;16.15;;;4.20;;
55633;SDS011;41504;53.162;6.788;2023-03-23T08:23:12;20.30;;;3.47;;
55633;SDS011;41504;53.162;6.788;2023-03-23T08:25:40;22.15;;;4.07;;
55633;SDS011;41504;53.162;6.788;2023-03-23T08:28:07;18.15;;;4.15;;
55633;SDS011;41504;53.162;6.788;2023-03-23T08:30:34;21.67;;;3.70;;
55633;SDS011;41504;53.162;6.788;2023-03-23T08:33:01;23.40;;;4.05;;
55633;SDS011;41504;53.162;6.788;2023-03-23T08:35:27;24.65;;;4.68;;
55633;SDS011;41504;53.162;6.788;2023-03-23T08:37:53;17.52;;;3.92;;
55633;SDS011;41504;53.162;6.788;2023-03-23T08:40:20;19.85;;;4.10;;
55633;SDS011;41504;53.162;6.788;2023-03-23T08:42:47;19.90;;;4.75;;
55633;SDS011;41504;53.162;6.788;2023-03-23T08:45:15;19.52;;;4.55;;
55633;SDS011;41504;53.162;6.788;2023-03-23T08:47:43;20.85;;;3.97;;
55633;SDS011;41504;53.162;6.788;2023-03-23T08:50:14;22.70;;;4.05;;
55633;SDS011;41504;53.162;6.788;2023-03-23T08:52:40;17.85;;;3.95;;
55633;SDS011;41504;53.162;6.788;2023-03-23T08:55:07;23.17;;;4.43;;
55633;SDS011;41504;53.162;6.788;2023-03-23T08:57:34;18.45;;;4.25;;
55633;SDS011;41504;53.162;6.788;2023-03-23T09:00:02;21.67;;;4.35;;
55633;SDS011;41504;53.162;6.788;2023-03-23T09:02:41;18.60;;;4.00;;
55633;SDS011;41504;53.162;6.788;2023-03-23T09:05:08;20.42;;;4.70;;
55633;SDS011;41504;53.162;6.788;2023-03-23T09:07:35;20.90;;;4.55;;
55633;SDS011;41504;53.162;6.788;2023-03-23T09:10:05;23.20;;;4.68;;
55633;SDS011;41504;53.162;6.788;2023-03-23T09:12:32;21.92;;;4.50;;
55633;SDS011;41504;53.162;6.788;2023-03-23T09:14:58;18.33;;;4.60;;
55633;SDS011;41504;53.162;6.788;2023-03-23T09:17:24;24.35;;;4.57;;
55633;SDS011;41504;53.162;6.788;2023-03-23T09:19:50;22.30;;;4.85;;
55633;SDS011;41504;53.162;6.788;2023-03-23T09:22:16;22.67;;;6.30;;
55633;SDS011;41504;53.162;6.788;2023-03-23T09:24:45;18.73;;;4.18;;
55633;SDS011;41504;53.162;6.788;2023-03-23T09:27:11;20.90;;;4.85;;
55633;SDS011;41504;53.162;6.788;2023-03-23T09:29:37;17.10;;;4.70;;
55633;SDS011;41504;53.162;6.788;2023-03-23T09:32:03;27.15;;;5.38;;
55633;SDS011;41504;53.162;6.788;2023-03-23T09:34:29;20.42;;;4.80;;
55633;SDS011;41504;53.162;6.788;2023-03-23T09:36:54;17.80;;;4.22;;
55633;SDS011;41504;53.162;6.788;2023-03-23T09:39:20;22.70;;;4.10;;
55633;SDS011;41504;53.162;6.788;2023-03-23T09:49:50;20.67;;;4.63;;
55633;SDS011;41504;53.162;6.788;2023-03-23T09:52:20;21.13;;;4.55;;
55633;SDS011;41504;53.162;6.788;2023-03-23T09:54:50;21.10;;;3.75;;
55633;SDS011;41504;53.162;6.788;2023-03-23T09:57:22;16.97;;;4.17;;
55633;SDS011;41504;53.162;6.788;2023-03-23T10:00:01;15.02;;;3.78;;
55633;SDS011;41504;53.162;6.788;2023-03-23T10:02:32;18.70;;;3.83;;
55633;SDS011;41504;53.162;6.788;2023-03-23T10:05:18;18.02;;;4.22;;
55633;SDS011;41504;53.162;6.788;2023-03-23T10:08:10;14.88;;;4.10;;
55633;SDS011;41504;53.162;6.788;2023-03-23T10:10:48;20.25;;;3.55;;
55633;SDS011;41504;53.162;6.788;2023-03-23T10:21:50;15.25;;;3.20;;
55633;SDS011;41504;53.162;6.788;2023-03-23T10:24:19;19.48;;;3.55;;
55633;SDS011;41504;53.162;6.788;2023-03-23T10:26:57;15.60;;;4.00;;
55633;SDS011;41504;53.162;6.788;2023-03-23T10:29:30;14.80;;;3.50;;
55633;SDS011;41504;53.162;6.788;2023-03-23T10:32:20;15.68;;;3.72;;
55633;SDS011;41504;53.162;6.788;2023-03-23T10:35:03;13.45;;;3.50;;
55633;SDS011;41504;53.162;6.788;2023-03-23T10:37:37;16.02;;;3.35;;
55633;SDS011;41504;53.162;6.788;2023-03-23T10:40:19;18.67;;;3.75;;
55633;SDS011;41504;53.162;6.788;2023-03-23T10:42:49;18.45;;;3.90;;
55633;SDS011;41504;53.162;6.788;2023-03-23T10:48:16;15.52;;;3.65;;
55633;SDS011;41504;53.162;6.788;2023-03-23T10:51:02;17.27;;;3.60;;
55633;SDS011;41504;53.162;6.788;2023-03-23T10:53:43;14.60;;;3.55;;
55633;SDS011;41504;53.162;6.788;2023-03-23T10:56:23;16.60;;;3.80;;
55633;SDS011;41504;53.162;6.788;2023-03-23T10:58:50;15.52;;;3.47;;
55633;SDS011;41504;53.162;6.788;2023-03-23T11:01:27;18.35;;;3.80;;
55633;SDS011;41504;53.162;6.788;2023-03-23T11:04:00;14.93;;;3.67;;
55633;SDS011;41504;53.162;6.788;2023-03-23T11:06:27;12.10;;;2.95;;
55633;SDS011;41504;53.162;6.788;2023-03-23T11:09:15;15.90;;;3.53;;
55633;SDS011;41504;53.162;6.788;2023-03-23T11:11:52;13.80;;;3.40;;
55633;SDS011;41504;53.162;6.788;2023-03-23T11:16:56;16.48;;;3.83;;
55633;SDS011;41504;53.162;6.788;2023-03-23T11:19:27;17.48;;;3.50;;
55633;SDS011;41504;53.162;6.788;2023-03-23T11:24:31;15.68;;;3.47;;
55633;SDS011;41504;53.162;6.788;2023-03-23T11:26:59;16.10;;;3.72;;
55633;SDS011;41504;53.162;6.788;2023-03-23T11:29:26;10.82;;;2.58;;
55633;SDS011;41504;53.162;6.788;2023-03-23T11:32:02;16.55;;;3.30;;
55633;SDS011;41504;53.162;6.788;2023-03-23T11:34:43;11.68;;;2.97;;
55633;SDS011;41504;53.162;6.788;2023-03-23T11:37:13;14.48;;;3.08;;
55633;SDS011;41504;53.162;6.788;2023-03-23T11:39:46;13.98;;;3.05;;
55633;SDS011;41504;53.162;6.788;2023-03-23T11:42:19;11.98;;;2.88;;
55633;SDS011;41504;53.162;6.788;2023-03-23T11:44:47;13.80;;;3.08;;
55633;SDS011;41504;53.162;6.788;2023-03-23T11:47:34;12.35;;;3.40;;
55633;SDS011;41504;53.162;6.788;2023-03-23T11:58:47;13.60;;;2.85;;
55633;SDS011;41504;53.162;6.788;2023-03-23T12:06:29;13.27;;;3.30;;
55633;SDS011;41504;53.162;6.788;2023-03-23T12:09:28;13.07;;;3.10;;
55633;SDS011;41504;53.162;6.788;2023-03-23T12:23:04;9.80;;;2.83;;
55633;SDS011;41504;53.162;6.788;2023-03-23T12:31:03;11.43;;;3.10;;
55633;SDS011;41504;53.162;6.788;2023-03-23T12:36:36;11.05;;;2.38;;
55633;SDS011;41504;53.162;6.788;2023-03-23T12:45:11;11.70;;;2.67;;
55633;SDS011;41504;53.162;6.788;2023-03-23T12:47:49;9.93;;;2.63;;
55633;SDS011;41504;53.162;6.788;2023-03-23T12:53:20;12.45;;;2.47;;
55633;SDS011;41504;53.162;6.788;2023-03-23T12:58:45;10.80;;;2.63;;
55633;SDS011;41504;53.162;6.788;2023-03-23T13:01:15;13.43;;;2.63;;
55633;SDS011;41504;53.162;6.788;2023-03-23T13:04:00;9.85;;;2.40;;
55633;SDS011;41504;53.162;6.788;2023-03-23T13:06:40;10.30;;;2.25;;
55633;SDS011;41504;53.162;6.788;2023-03-23T13:09:24;11.65;;;2.85;;
55633;SDS011;41504;53.162;6.788;2023-03-23T13:11:52;9.05;;;2.80;;
55633;SDS011;41504;53.162;6.788;2023-03-23T13:14:37;8.07;;;2.40;;
55633;SDS011;41504;53.162;6.788;2023-03-23T13:26:03;9.23;;;2.85;;
55633;SDS011;41504;53.162;6.788;2023-03-23T13:31:31;10.73;;;2.88;;
55633;SDS011;41504;53.162;6.788;2023-03-23T13:34:00;10.77;;;2.80;;
55633;SDS011;41504;53.162;6.788;2023-03-23T13:36:30;11.68;;;2.75;;
55633;SDS011;41504;53.162;6.788;2023-03-23T13:39:04;13.88;;;2.83;;
55633;SDS011;41504;53.162;6.788;2023-03-23T13:41:45;12.77;;;2.60;;
55633;SDS011;41504;53.162;6.788;2023-03-23T13:44:24;13.32;;;3.15;;
55633;SDS011;41504;53.162;6.788;2023-03-23T13:46:55;15.77;;;3.05;;
55633;SDS011;41504;53.162;6.788;2023-03-23T13:49:23;12.02;;;2.85;;
55633;SDS011;41504;53.162;6.788;2023-03-23T13:54:25;14.48;;;3.08;;
55633;SDS011;41504;53.162;6.788;2023-03-23T13:57:00;13.77;;;3.20;;
55633;SDS011;41504;53.162;6.788;2023-03-23T13:59:30;13.03;;;3.20;;
55633;SDS011;41504;53.162;6.788;2023-03-23T14:08:01;13.23;;;3.47;;
55633;SDS011;41504;53.162;6.788;2023-03-23T14:10:42;10.55;;;2.92;;
55633;SDS011;41504;53.162;6.788;2023-03-23T14:13:24;12.18;;;2.45;;
55633;SDS011;41504;53.162;6.788;2023-03-23T14:15:56;14.02;;;3.22;;
55633;SDS011;41504;53.162;6.788;2023-03-23T14:18:25;14.07;;;3.40;;
55633;SDS011;41504;53.162;6.788;2023-03-23T14:21:02;12.82;;;3.28;;
55633;SDS011;41504;53.162;6.788;2023-03-23T14:23:31;13.35;;;3.10;;
55633;SDS011;41504;53.162;6.788;2023-03-23T14:25:59;12.18;;;3.20;;
55633;SDS011;41504;53.162;6.788;2023-03-23T14:28:32;15.57;;;3.25;;
55633;SDS011;41504;53.162;6.788;2023-03-23T14:31:03;14.63;;;3.13;;
55633;SDS011;41504;53.162;6.788;2023-03-23T14:33:29;14.60;;;3.63;;
55633;SDS011;41504;53.162;6.788;2023-03-23T14:35:56;16.40;;;3.50;;
55633;SDS011;41504;53.162;6.788;2023-03-23T14:38:24;13.98;;;2.92;;
55633;SDS011;41504;53.162;6.788;2023-03-23T14:40:59;11.77;;;2.63;;
55633;SDS011;41504;53.162;6.788;2023-03-23T14:43:27;10.10;;;2.38;;
55633;SDS011;41504;53.162;6.788;2023-03-23T14:45:54;11.13;;;2.90;;
55633;SDS011;41504;53.162;6.788;2023-03-23T14:48:23;12.20;;;2.58;;
55633;SDS011;41504;53.162;6.788;2023-03-23T14:51:00;10.68;;;2.88;;
55633;SDS011;41504;53.162;6.788;2023-03-23T14:53:35;11.63;;;2.45;;
55633;SDS011;41504;53.162;6.788;2023-03-23T14:56:06;12.07;;;3.00;;
55633;SDS011;41504;53.162;6.788;2023-03-23T14:58:36;13.20;;;2.85;;
55633;SDS011;41504;53.162;6.788;2023-03-23T15:01:10;11.23;;;2.63;;
55633;SDS011;41504;53.162;6.788;2023-03-23T15:03:41;13.55;;;2.65;;
55633;SDS011;41504;53.162;6.788;2023-03-23T15:06:39;12.63;;;2.78;;
55633;SDS011;41504;53.162;6.788;2023-03-23T15:09:13;11.07;;;2.80;;
55633;SDS011;41504;53.162;6.788;2023-03-23T15:11:49;15.45;;;3.30;;
55633;SDS011;41504;53.162;6.788;2023-03-23T15:14:46;8.93;;;2.30;;
55633;SDS011;41504;53.162;6.788;2023-03-23T15:17:18;11.32;;;2.47;;
55633;SDS011;41504;53.162;6.788;2023-03-23T15:19:46;9.97;;;2.57;;
55633;SDS011;41504;53.162;6.788;2023-03-23T15:22:22;9.88;;;2.65;;
55633;SDS011;41504;53.162;6.788;2023-03-23T15:24:48;14.02;;;3.00;;
55633;SDS011;41504;53.162;6.788;2023-03-23T15:27:27;9.43;;;3.05;;
55633;SDS011;41504;53.162;6.788;2023-03-23T15:29:56;11.73;;;2.63;;
55633;SDS011;41504;53.162;6.788;2023-03-23T15:32:24;10.63;;;2.03;;
55633;SDS011;41504;53.162;6.788;2023-03-23T15:35:16;12.27;;;2.88;;
55633;SDS011;41504;53.162;6.788;2023-03-23T15:37:45;10.98;;;2.22;;
55633;SDS011;41504;53.162;6.788;2023-03-23T15:40:16;9.07;;;2.60;;
55633;SDS011;41504;53.162;6.788;2023-03-23T15:42:45;7.45;;;2.15;;
55633;SDS011;41504;53.162;6.788;2023-03-23T15:52:37;11.70;;;2.80;;
55633;SDS011;41504;53.162;6.788;2023-03-23T15:55:15;8.35;;;2.20;;
55633;SDS011;41504;53.162;6.788;2023-03-23T15:57:48;8.68;;;2.28;;
55633;SDS011;41504;53.162;6.788;2023-03-23T16:00:18;11.07;;;3.22;;
55633;SDS011;41504;53.162;6.788;2023-03-23T16:02:45;15.32;;;4.50;;
55633;SDS011;41504;53.162;6.788;2023-03-23T16:05:13;13.77;;;4.10;;
55633;SDS011;41504;53.162;6.788;2023-03-23T16:07:39;10.38;;;3.70;;
55633;SDS011;41504;53.162;6.788;2023-03-23T16:10:05;11.75;;;3.17;;
55633;SDS011;41504;53.162;6.788;2023-03-23T16:15:04;11.73;;;2.95;;
55633;SDS011;41504;53.162;6.788;2023-03-23T16:17:30;13.35;;;2.92;;
55633;SDS011;41504;53.162;6.788;2023-03-23T16:19:57;12.25;;;3.17;;
55633;SDS011;41504;53.162;6.788;2023-03-23T16:22:22;11.43;;;2.67;;
55633;SDS011;41504;53.162;6.788;2023-03-23T16:24:48;11.48;;;2.70;;
55633;SDS011;41504;53.162;6.788;2023-03-23T16:27:14;11.60;;;2.70;;
55633;SDS011;41504;53.162;6.788;2023-03-23T16:29:40;11.95;;;2.90;;
55633;SDS011;41504;53.162;6.788;2023-03-23T16:32:05;12.82;;;2.83;;
55633;SDS011;41504;53.162;6.788;2023-03-23T16:34:31;11.25;;;2.90;;
55633;SDS011;41504;53.162;6.788;2023-03-23T16:36:59;15.23;;;3.60;;
55633;SDS011;41504;53.162;6.788;2023-03-23T16:39:26;12.80;;;2.78;;
55633;SDS011;41504;53.162;6.788;2023-03-23T16:41:52;12.45;;;3.22;;
55633;SDS011;41504;53.162;6.788;2023-03-23T16:44:17;12.45;;;2.90;;
55633;SDS011;41504;53.162;6.788;2023-03-23T16:46:43;16.08;;;3.45;;
55633;SDS011;41504;53.162;6.788;2023-03-23T16:49:09;13.35;;;2.78;;
55633;SDS011;41504;53.162;6.788;2023-03-23T16:51:35;17.13;;;3.40;;
55633;SDS011;41504;53.162;6.788;2023-03-23T16:54:00;14.07;;;2.92;;
55633;SDS011;41504;53.162;6.788;2023-03-23T16:56:29;11.02;;;2.58;;
55633;SDS011;41504;53.162;6.788;2023-03-23T16:58:55;10.38;;;2.90;;
55633;SDS011;41504;53.162;6.788;2023-03-23T17:01:21;14.10;;;3.25;;
55633;SDS011;41504;53.162;6.788;2023-03-23T17:03:46;12.98;;;2.92;;